Time;durP1;ratioP1;P1;durP2;ratioP2;P2;SDS_P1;SDS_P2;PMS_P1;PMS_P2;Temp;Humidity;BMP_temperature;BMP_pressure;BME280_temperature;BME280_humidity;BME280_pressure;Samples;Min_cycle;Max_cycle;Signal;HPM_P1;HPM_P2
2022/12/21 05:00:50;;;;;;;25.52;12.30;;;;;;;0.40;98.69;101070.56;6320030;27;21082;31
2022/12/21 05:03:57;;;;;;;26.17;13.38;;;;;;;0.27;96.43;101059.88;5326068;33;34120;-83
2022/12/21 05:07:00;;;;;;;32.65;14.27;;;;;;;0.28;98.47;101053.63;5319197;33;33467;-83
2022/12/21 05:10:03;;;;;;;31.27;13.00;;;;;;;0.17;96.51;101056.94;5310564;33;33813;-84
2022/12/21 05:13:06;;;;;;;30.40;13.70;;;;;;;0.26;96.76;101049.38;5325452;33;34943;-83
2022/12/21 05:16:14;;;;;;;27.75;14.10;;;;;;;0.25;98.00;101043.22;5325757;33;34815;-84
2022/12/21 05:19:18;;;;;;;25.80;13.62;;;;;;;0.28;98.07;101045.69;5325537;33;34304;-83
2022/12/21 05:22:20;;;;;;;31.80;13.00;;;;;;;0.26;98.86;101047.56;5325804;33;34222;-84
2022/12/21 05:25:23;;;;;;;32.30;14.48;;;;;;;0.32;98.26;101036.63;5312604;33;33062;-84
2022/12/21 05:28:26;;;;;;;24.90;12.52;;;;;;;0.43;96.94;101041.22;5325312;33;34162;-83
2022/12/21 05:31:29;;;;;;;28.08;12.63;;;;;;;0.31;93.66;101045.50;5312377;33;33542;-83
2022/12/21 05:34:32;;;;;;;28.00;12.43;;;;;;;0.28;94.69;101043.03;5321847;33;34189;-83
2022/12/21 05:37:35;;;;;;;28.42;13.80;;;;;;;0.26;95.41;101036.97;5324990;33;32561;-84
2022/12/21 05:40:49;;;;;;;29.83;14.35;;;;;;;0.25;96.85;101043.22;5324639;33;34569;-84
2022/12/21 05:43:51;;;;;;;;;;;;;;;0.32;96.77;101041.91;5312817;33;32785;-84
2022/12/21 05:46:54;;;;;;;25.52;12.25;;;;;;;0.28;94.53;101037.75;5311981;33;34781;-83
2022/12/21 05:49:57;;;;;;;29.80;12.77;;;;;;;0.32;95.23;101041.03;5312580;33;32537;-83
2022/12/21 05:53:00;;;;;;;29.73;13.95;;;;;;;0.28;95.68;101036.91;5311593;33;33800;-84
2022/12/21 05:56:03;;;;;;;29.12;13.60;;;;;;;0.38;96.40;101040.66;5324740;33;34688;-83
2022/12/21 05:59:06;;;;;;;29.35;13.70;;;;;;;0.37;97.07;101041.63;5324887;33;35559;-83
2022/12/21 06:02:09;;;;;;;32.85;15.02;;;;;;;0.32;97.35;101048.97;5325489;33;34236;-84
2022/12/21 06:05:12;;;;;;;31.92;14.82;;;;;;;0.34;97.31;101039.16;5325426;33;34769;-83
2022/12/21 06:08:15;;;;;;;30.40;13.75;;;;;;;0.30;98.05;101033.22;5324733;33;34269;-83
2022/12/21 06:11:21;;;;;;;29.33;13.40;;;;;;;0.18;99.20;101040.13;5325451;33;34922;-83
2022/12/21 06:14:24;;;;;;;29.52;14.23;;;;;;;0.22;98.52;101035.47;5324985;33;34608;-83
2022/12/21 06:17:29;;;;;;;31.85;14.77;;;;;;;0.25;98.38;101029.13;5325951;33;34162;-83
2022/12/21 06:20:36;;;;;;;28.95;14.23;;;;;;;0.19;99.31;101035.66;5325482;33;34194;-84
2022/12/21 06:23:40;;;;;;;32.00;14.70;;;;;;;0.23;99.41;101042.47;5324189;33;34549;-84
2022/12/21 06:26:43;;;;;;;32.30;14.55;;;;;;;0.15;98.43;101032.38;5324131;33;35072;-83
2022/12/21 06:29:51;;;;;;;30.37;13.57;;;;;;;0.20;97.87;101050.59;5324566;33;34571;-86
2022/12/21 06:32:54;;;;;;;33.45;14.68;;;;;;;0.26;97.83;101046.72;5312087;33;34070;-87
2022/12/21 06:35:57;;;;;;;34.17;15.13;;;;;;;0.24;97.73;101051.28;5328245;33;34771;-88
2022/12/21 06:38:59;;;;;;;30.88;14.38;;;;;;;0.30;95.83;101045.59;5323188;33;34782;-88
2022/12/21 06:42:03;;;;;;;30.00;13.80;;;;;;;0.27;95.62;101030.75;5315200;33;34527;-87
2022/12/21 06:45:06;;;;;;;29.87;14.18;;;;;;;0.28;96.39;101027.16;5316620;33;34406;-84
2022/12/21 06:48:09;;;;;;;29.52;14.50;;;;;;;0.27;95.70;101019.31;5322993;33;34946;-84
2022/12/21 06:51:13;;;;;;;32.55;14.65;;;;;;;0.28;95.26;101029.78;5324932;33;34112;-83
2022/12/21 06:54:16;;;;;;;29.23;15.27;;;;;;;0.34;96.06;101012.66;5312981;33;34306;-84
2022/12/21 07:00:16;;;;;;;29.98;15.00;;;;;;;0.96;93.90;101026.34;5590698;31;784132;-84
2022/12/21 07:03:20;;;;;;;30.33;14.27;;;;;;;0.96;93.90;101026.34;5607196;31;33445;-84
2022/12/21 07:06:24;;;;;;;30.30;14.87;;;;;;;0.41;94.80;101013.97;5607831;31;34297;-84
2022/12/21 07:09:27;;;;;;;29.02;15.35;;;;;;;0.36;94.09;101019.56;5580534;31;31935;-84
2022/12/21 07:12:30;;;;;;;31.65;15.07;;;;;;;0.39;94.06;101023.84;5599828;31;33240;-84
2022/12/21 07:15:34;;;;;;;40.38;15.90;;;;;;;0.36;96.30;101024.03;5614942;31;34527;-84
2022/12/21 07:18:39;;;;;;;38.38;15.13;;;;;;;0.54;94.02;101027.31;5602541;31;32848;-84
2022/12/21 07:21:42;;;;;;;31.90;15.77;;;;;;;0.60;94.17;101019.81;5602008;31;34541;-84
2022/12/21 07:24:44;;;;;;;35.78;16.40;;;;;;;0.51;94.83;101009.81;5607880;31;34196;-84
2022/12/21 07:27:48;;;;;;;36.65;15.55;;;;;;;0.54;94.43;101016.72;5597017;31;34319;-84
2022/12/21 07:31:02;;;;;;;33.20;15.25;;;;;;;0.67;93.71;101018.50;5603206;31;33562;-84
2022/12/21 07:34:06;;;;;;;34.45;15.77;;;;;;;0.64;94.00;101028.41;5612902;31;34795;-84
2022/12/21 07:37:08;;;;;;;35.15;16.23;;;;;;;0.66;95.39;101016.78;5582186;31;32360;-84
2022/12/21 07:40:12;;;;;;;31.55;16.60;;;;;;;0.68;93.01;101014.03;5588169;31;35137;-84
2022/12/21 07:43:15;;;;;;;31.27;15.90;;;;;;;0.72;92.42;101014.69;5603326;31;33738;-84
2022/12/21 07:46:18;;;;;;;31.33;15.68;;;;;;;0.72;93.21;101019.97;5592811;31;34103;-84
2022/12/21 07:49:22;;;;;;;31.52;16.23;;;;;;;0.76;94.59;101011.75;5603163;31;33538;-84
2022/12/21 07:52:25;;;;;;;32.70;16.52;;;;;;;0.72;92.86;101014.69;5602935;31;34165;-83
2022/12/21 07:55:30;;;;;;;36.13;15.90;;;;;;;0.82;92.63;101003.41;5601736;31;33809;-84
2022/12/21 07:58:34;;;;;;;31.58;16.92;;;;;;;0.84;92.39;101013.88;5599772;31;34480;-84
2022/12/21 08:01:37;;;;;;;35.00;17.48;;;;;;;0.90;91.92;101005.53;5601945;31;33566;-84
2022/12/21 08:04:41;;;;;;;37.80;17.20;;;;;;;1.05;91.54;101007.19;5602164;31;33870;-84
2022/12/21 08:07:43;;;;;;;36.80;17.02;;;;;;;1.04;91.66;101000.16;5587234;31;33104;-83
2022/12/21 08:10:48;;;;;;;38.10;17.48;;;;;;;0.98;91.36;101000.56;5592058;31;34486;-83
2022/12/21 08:13:51;;;;;;;33.95;17.08;;;;;;;1.03;91.58;100995.00;5574098;31;32520;-84
2022/12/21 08:16:54;;;;;;;38.47;17.17;;;;;;;1.22;91.69;100997.25;5588975;31;35168;-83
2022/12/21 08:19:56;;;;;;;38.17;17.27;;;;;;;1.13;90.17;100994.25;5578387;31;33774;-84
2022/12/21 08:22:59;;;;;;;35.85;17.50;;;;;;;1.17;91.25;100999.34;5572211;31;33873;-83
2022/12/21 08:26:08;;;;;;;44.22;18.12;;;;;;;1.25;91.44;100999.69;5573509;31;33651;-83
2022/12/21 08:29:13;;;;;;;36.25;18.40;;;;;;;1.31;90.58;100996.63;5591714;31;34196;-84
2022/12/21 08:32:16;;;;;;;37.60;17.65;;;;;;;1.30;91.92;100990.47;5576692;31;32483;-84
2022/12/21 08:35:19;;;;;;;37.00;18.15;;;;;;;1.24;90.00;100990.06;5579968;31;34627;-83
2022/12/21 08:38:22;;;;;;;35.60;17.55;;;;;;;1.24;90.94;100996.19;5570926;31;35276;-83
2022/12/21 08:41:45;;;;;;;32.28;16.23;;;;;;;1.33;90.72;100992.94;5590158;31;34531;-83
2022/12/21 08:44:48;;;;;;;35.85;18.02;;;;;;;1.33;89.74;100997.38;5601987;31;32171;-84
2022/12/21 08:47:51;;;;;;;39.92;19.10;;;;;;;1.39;89.34;100994.31;5584422;31;33963;-84
2022/12/21 08:50:53;;;;;;;36.13;18.67;;;;;;;1.44;90.13;101002.81;5582366;31;33722;-84
2022/12/21 08:53:56;;;;;;;38.60;18.85;;;;;;;1.37;92.20;100993.56;5583021;31;34163;-84
2022/12/21 08:56:59;;;;;;;40.10;19.20;;;;;;;1.46;91.21;100990.28;5574660;31;33796;-84
2022/12/21 09:00:04;;;;;;;34.95;18.12;;;;;;;1.59;89.24;100983.19;5577516;31;33210;-84
2022/12/21 09:03:07;;;;;;;39.30;20.30;;;;;;;1.54;89.90;100993.28;5577966;31;34403;-83
2022/12/21 09:06:10;;;;;;;35.95;17.80;;;;;;;1.50;90.45;100989.13;5580627;31;33498;-84
2022/12/21 09:09:13;;;;;;;38.95;19.00;;;;;;;1.57;90.12;100985.09;5578965;31;34498;-83
2022/12/21 09:12:16;;;;;;;36.55;19.58;;;;;;;1.62;90.91;100990.09;5575481;31;35660;-84
2022/12/21 09:15:18;;;;;;;40.33;18.55;;;;;;;1.68;89.66;101000.28;5576200;31;34531;-84
2022/12/21 09:18:22;;;;;;;35.72;18.85;;;;;;;1.70;89.59;100979.81;5578845;31;34899;-84
2022/12/21 09:21:25;;;;;;;39.90;19.92;;;;;;;1.66;89.67;100974.81;5586256;31;34555;-84
2022/12/21 09:24:28;;;;;;;37.58;19.50;;;;;;;1.65;89.50;100973.13;5568921;31;33026;-84
2022/12/21 09:27:30;;;;;;;41.58;20.20;;;;;;;1.63;90.01;100972.37;5588548;31;34810;-84
2022/12/21 09:30:33;;;;;;;41.92;19.42;;;;;;;1.78;90.43;100955.37;5589240;31;32895;-83
2022/12/21 09:33:38;;;;;;;35.65;19.55;;;;;;;1.78;89.04;100955.37;5591406;31;34931;-83
2022/12/21 09:36:41;;;;;;;39.63;19.37;;;;;;;1.79;89.04;100952.63;5587600;31;33937;-83
2022/12/21 09:40:04;;;;;;;35.10;18.80;;;;;;;1.72;88.94;100943.38;5596433;31;32396;-83
2022/12/21 09:43:44;;;;;;;43.75;19.83;;;;;;;1.65;89.00;100936.81;5580346;31;34623;-83
2022/12/21 09:46:52;;;;;;;37.60;20.45;;;;;;;1.69;89.10;100932.97;5572147;31;32419;-84
2022/12/21 09:49:59;;;;;;;;;;;;;;;1.73;89.55;100923.03;5574903;31;32861;-83
2022/12/21 09:53:11;;;;;;;35.80;18.00;;;;;;;1.71;90.72;100931.06;5588931;31;34964;-83
2022/12/21 09:56:18;;;;;;;35.83;18.80;;;;;;;1.71;91.41;100920.47;5573336;31;34415;-88
2022/12/21 09:59:22;;;;;;;34.72;18.65;;;;;;;1.78;89.72;100920.88;5589351;31;34346;-84
2022/12/21 10:02:40;;;;;;;38.38;19.48;;;;;;;1.75;91.56;100919.28;5591659;31;34577;-84
2022/12/21 10:06:05;;;;;;;39.83;19.80;;;;;;;1.82;91.11;100925.03;5580771;31;32296;-82
2022/12/21 10:09:26;;;;;;;40.80;18.95;;;;;;;1.92;88.46;100928.72;5588925;31;33870;-83
2022/12/21 10:12:56;;;;;;;37.13;19.02;;;;;;;1.91;89.86;100915.56;5593873;31;33855;-82
2022/12/21 10:16:20;;;;;;;43.10;20.37;;;;;;;1.93;89.46;100910.97;5585785;31;34653;-84
2022/12/21 10:19:55;;;;;;;37.97;18.27;;;;;;;1.96;89.12;100911.63;5592953;31;34043;-82
2022/12/21 10:23:02;;;;;;;36.20;19.98;;;;;;;1.82;89.27;100909.09;5590217;31;33865;-83
2022/12/21 10:26:11;;;;;;;38.67;18.83;;;;;;;1.86;88.18;100909.72;5590296;31;33577;-90
2022/12/21 10:29:18;;;;;;;35.00;19.23;;;;;;;1.78;87.94;100910.25;5592842;31;34892;-86
2022/12/21 10:32:22;;;;;;;40.83;21.42;;;;;;;1.83;87.86;100909.94;5586624;31;34439;-83
2022/12/21 10:35:34;;;;;;;34.28;18.17;;;;;;;1.85;88.96;100900.06;5572096;31;32695;-83
2022/12/21 10:38:38;;;;;;;37.95;19.02;;;;;;;1.83;88.39;100897.50;5585876;31;33799;-83
2022/12/21 10:41:44;;;;;;;38.97;20.15;;;;;;;1.82;89.04;100895.81;5571215;31;34155;-83
2022/12/21 10:44:50;;;;;;;39.80;19.15;;;;;;;1.83;88.86;100891.34;5582839;31;33498;-83
2022/12/21 10:47:53;;;;;;;40.92;20.10;;;;;;;1.95;87.08;100896.62;5584422;31;33932;-83
2022/12/21 10:51:27;;;;;;;39.20;19.77;;;;;;;1.90;88.19;100888.16;5571438;32;33823;-83
2022/12/21 10:54:29;;;;;;;38.13;18.73;;;;;;;1.95;88.87;100882.50;5568130;32;33892;-83
2022/12/21 10:57:33;;;;;;;42.28;18.48;;;;;;;1.99;87.91;100883.97;5573779;31;33719;-84
2022/12/21 11:01:00;;;;;;;38.83;19.98;;;;;;;1.94;89.04;100878.16;5586719;31;35215;-84
2022/12/21 11:04:10;;;;;;;36.20;19.98;;;;;;;1.92;88.48;100869.44;5589489;31;34244;-84
2022/12/21 11:07:28;;;;;;;36.50;19.90;;;;;;;1.84;88.54;100856.72;5586703;31;33688;-84
2022/12/21 11:10:55;;;;;;;40.15;20.67;;;;;;;1.72;89.57;100857.59;5577662;31;33428;-88
2022/12/21 11:14:17;;;;;;;39.88;21.12;;;;;;;1.80;90.33;100860.56;5604589;31;35229;-88
2022/12/21 11:17:26;;;;;;;37.42;19.25;;;;;;;1.90;90.07;100860.75;5579427;31;33655;-84
2022/12/21 11:20:32;;;;;;;40.97;18.85;;;;;;;1.87;90.20;100853.84;5583967;31;32830;-84
2022/12/21 11:23:35;;;;;;;39.40;19.85;;;;;;;2.01;89.96;100836.91;5579137;31;34256;-84
2022/12/21 11:26:46;;;;;;;39.88;20.02;;;;;;;1.89;90.44;100846.63;5575700;31;33520;-84
2022/12/21 11:30:08;;;;;;;35.50;19.80;;;;;;;2.03;89.50;100850.94;5585439;31;33438;-84
2022/12/21 11:33:17;;;;;;;44.45;20.50;;;;;;;2.02;89.52;100842.12;5569730;31;33044;-84
2022/12/21 11:36:20;;;;;;;42.60;20.35;;;;;;;1.99;90.41;100831.75;5585132;31;33918;-84
2022/12/21 11:39:24;;;;;;;38.47;20.12;;;;;;;2.07;89.26;100833.81;5581738;31;35015;-84
2022/12/21 11:42:27;;;;;;;39.90;20.42;;;;;;;2.13;89.27;100825.41;5584185;31;33579;-84
2022/12/21 11:45:32;;;;;;;38.70;22.00;;;;;;;2.09;89.23;100826.59;5585115;31;33900;-84
2022/12/21 11:48:41;;;;;;;42.20;22.10;;;;;;;1.95;89.59;100827.59;5574108;31;32271;-84
2022/12/21 11:52:28;;;;;;;38.92;21.17;;;;;;;1.92;89.64;100832.28;5588795;31;33523;-84
2022/12/21 11:55:55;;;;;;;41.33;21.83;;;;;;;2.07;89.90;100828.50;5522272;31;32027;-82
2022/12/21 11:59:16;;;;;;;40.53;20.50;;;;;;;2.27;88.49;100822.56;5583138;31;34460;-83
2022/12/21 12:02:40;;;;;;;39.58;20.20;;;;;;;2.31;88.41;100823.22;5575304;31;35217;-84
2022/12/21 12:05:55;;;;;;;39.83;20.88;;;;;;;2.27;87.55;100800.47;5584510;31;33640;-84
2022/12/21 12:09:40;;;;;;;38.35;19.73;;;;;;;2.29;88.98;100803.88;5584084;31;33898;-84
2022/12/21 12:13:06;;;;;;;38.67;19.67;;;;;;;2.14;88.97;100802.38;5568540;31;32665;-84
2022/12/21 12:16:32;;;;;;;37.03;19.00;;;;;;;2.15;88.87;100804.06;5583648;31;33911;-84
2022/12/21 12:20:03;;;;;;;35.38;18.80;;;;;;;2.06;88.73;100800.25;5594207;31;34118;-84
2022/12/21 12:23:41;;;;;;;37.65;19.27;;;;;;;2.06;89.98;100797.59;5596994;31;34448;-84
2022/12/21 12:27:06;;;;;;;35.95;19.48;;;;;;;2.04;89.13;100802.19;5518662;31;33771;-83
2022/12/21 12:30:17;;;;;;;39.03;19.95;;;;;;;2.07;89.79;100796.63;5588314;31;34077;-84
2022/12/21 12:33:26;;;;;;;39.05;20.90;;;;;;;2.06;90.16;100794.09;5582056;31;32092;-84
2022/12/21 12:36:51;;;;;;;39.03;19.75;;;;;;;1.99;89.86;100791.91;5588648;31;33776;-83
2022/12/21 12:40:09;;;;;;;36.47;19.42;;;;;;;2.08;89.94;100792.16;5580757;31;34324;-83
2022/12/21 12:43:18;;;;;;;35.92;20.15;;;;;;;1.94;90.27;100783.44;5591363;31;34069;-83
2022/12/21 12:46:24;;;;;;;38.97;18.60;;;;;;;2.07;89.81;100795.78;5574220;31;32551;-83
2022/12/21 12:49:44;;;;;;;38.22;21.05;;;;;;;1.90;91.48;100786.41;5586407;31;34684;-83
2022/12/21 12:53:19;;;;;;;38.03;19.05;;;;;;;1.85;91.23;100789.41;5586802;31;35190;-84
2022/12/21 12:56:27;;;;;;;36.95;19.30;;;;;;;1.83;90.04;100788.66;5576451;31;34242;-84
2022/12/21 12:59:38;;;;;;;39.03;20.23;;;;;;;1.75;90.22;100780.41;5588187;31;34489;-84
2022/12/21 13:03:21;;;;;;;39.17;18.95;;;;;;;1.83;90.78;100783.34;5572762;31;32084;-84
2022/12/21 13:06:46;;;;;;;38.00;20.23;;;;;;;1.88;91.35;100785.69;5575868;31;32811;-84
2022/12/21 13:10:02;;;;;;;35.22;18.45;;;;;;;1.94;89.86;100779.94;5590355;31;34233;-83
2022/12/21 13:13:07;;;;;;;34.63;17.62;;;;;;;1.95;89.63;100776.31;5578456;31;32462;-84
2022/12/21 13:16:25;;;;;;;40.75;19.67;;;;;;;1.85;89.60;100786.75;5588065;31;33936;-84
2022/12/21 13:19:30;;;;;;;40.03;19.12;;;;;;;1.77;90.72;100778.50;5584524;31;33885;-88
2022/12/21 13:22:36;;;;;;;43.25;20.90;;;;;;;1.80;91.39;100779.09;5587072;31;33523;-88
2022/12/21 13:26:10;;;;;;;41.05;20.52;;;;;;;1.79;91.77;100777.44;5560563;31;32260;-84
2022/12/21 13:29:30;;;;;;;40.12;20.08;;;;;;;1.77;91.20;100782.00;5574841;31;33986;-84
2022/12/21 13:32:38;;;;;;;40.78;19.27;;;;;;;1.68;90.80;100784.47;5573471;31;32032;-84
2022/12/21 13:35:55;;;;;;;37.70;19.37;;;;;;;1.59;91.86;100784.16;5588919;31;34677;-84
2022/12/21 13:39:26;;;;;;;37.92;19.80;;;;;;;1.72;90.62;100777.97;5568305;31;33330;-83
2022/12/21 13:42:38;;;;;;;34.53;18.20;;;;;;;1.62;91.79;100776.97;5579802;31;34051;-83
2022/12/21 13:45:47;;;;;;;38.15;20.52;;;;;;;1.71;90.92;100777.13;5587041;31;34676;-83
2022/12/21 13:49:15;;;;;;;37.97;19.85;;;;;;;1.68;92.16;100774.69;5571905;31;32193;-83
2022/12/21 13:52:18;;;;;;;38.53;20.17;;;;;;;1.60;93.57;100771.75;5587837;31;32586;-87
2022/12/21 13:55:21;;;;;;;35.60;18.12;;;;;;;1.64;93.15;100769.72;5587383;31;34064;-88
2022/12/21 13:58:55;;;;;;;42.13;21.08;;;;;;;1.69;92.20;100765.75;5565976;32;33552;-88
2022/12/21 14:02:21;;;;;;;38.33;18.40;;;;;;;1.61;93.21;100769.94;5565965;32;33494;-84
2022/12/21 14:05:27;;;;;;;37.03;18.98;;;;;;;1.60;93.39;100758.47;5556638;32;32506;-84
2022/12/21 14:08:52;;;;;;;39.25;20.05;;;;;;;1.61;93.91;100754.88;5566724;32;34331;-83
2022/12/21 14:12:10;;;;;;;35.85;18.52;;;;;;;1.58;94.15;100753.28;5555116;32;34546;-83
2022/12/21 14:15:55;;;;;;;37.72;18.80;;;;;;;1.65;92.76;100747.53;5572108;32;32489;-83
2022/12/21 14:19:00;;;;;;;38.53;19.40;;;;;;;1.48;93.47;100746.09;5548035;32;35240;-83
2022/12/21 14:22:14;;;;;;;40.03;20.45;;;;;;;1.46;94.43;100740.03;5550193;32;33390;-84
2022/12/21 14:25:46;;;;;;;33.10;18.62;;;;;;;1.59;93.65;100730.25;5548509;32;34140;-88
2022/12/21 14:28:50;;;;;;;41.17;19.85;;;;;;;1.51;94.85;100733.44;5557531;32;34329;-83
2022/12/21 14:32:02;;;;;;;38.65;20.17;;;;;;;1.45;95.48;100733.06;5557020;32;32274;-83
2022/12/21 14:35:23;;;;;;;39.10;20.33;;;;;;;1.35;95.56;100736.38;5540693;32;33079;-83
2022/12/21 14:38:28;;;;;;;42.60;19.77;;;;;;;1.45;95.18;100735.72;5528989;32;33710;-82
2022/12/21 14:41:44;;;;;;;35.95;18.92;;;;;;;1.31;95.72;100736.69;5529413;32;33998;-83
2022/12/21 14:45:09;;;;;;;38.30;19.90;;;;;;;1.27;96.74;100736.06;5539016;32;33545;-83
2022/12/21 14:48:40;;;;;;;42.75;20.88;;;;;;;1.29;96.80;100743.94;5546767;32;33738;-83
2022/12/21 14:51:54;;;;;;;37.00;20.30;;;;;;;1.24;97.13;100759.31;5545165;32;33840;-84
2022/12/21 14:54:57;;;;;;;41.10;19.70;;;;;;;1.26;98.56;100766.22;5537534;32;32323;-84
2022/12/21 14:58:01;;;;;;;45.08;22.02;;;;;;;1.25;98.66;100768.97;5549155;31;32378;-83
2022/12/21 15:01:09;;;;;;;42.42;22.37;;;;;;;1.34;98.00;100752.37;5572868;31;32209;-88
2022/12/21 15:04:18;;;;;;;41.85;22.45;;;;;;;1.37;97.29;100757.47;5586663;31;35986;-88
2022/12/21 15:07:25;;;;;;;42.60;20.85;;;;;;;1.24;98.55;100761.97;5586775;31;33647;-84
2022/12/21 15:10:35;;;;;;;40.40;21.02;;;;;;;1.01;98.25;100764.41;5575033;31;33744;-83
2022/12/21 15:13:53;;;;;;;49.78;21.98;;;;;;;1.02;99.01;100766.09;5589165;31;34931;-84
2022/12/21 15:16:59;;;;;;;44.08;21.50;;;;;;;1.09;99.83;100762.09;5587477;31;34360;-84
2022/12/21 15:20:02;;;;;;;45.92;23.48;;;;;;;1.17;100.00;100758.03;5587442;31;34491;-84
2022/12/21 15:23:15;;;;;;;44.63;23.50;;;;;;;1.17;99.81;100747.44;5589566;31;33952;-84
2022/12/21 15:26:25;;;;;;;44.55;23.48;;;;;;;1.08;100.00;100743.62;5585585;31;33806;-84
2022/12/21 15:29:38;;;;;;;46.33;22.27;;;;;;;1.09;100.00;100740.88;5588715;31;34457;-83
2022/12/21 15:32:50;;;;;;;46.47;22.85;;;;;;;1.09;100.00;100743.53;5573657;31;32155;-83
2022/12/21 15:35:57;;;;;;;43.63;22.13;;;;;;;1.29;99.88;100749.22;5588772;31;33913;-83
2022/12/21 15:39:05;;;;;;;50.80;24.12;;;;;;;1.20;100.00;100756.03;5589074;31;34589;-84
2022/12/21 15:42:31;;;;;;;40.35;21.27;;;;;;;1.09;100.00;100755.94;5574627;31;33315;-83
2022/12/21 15:45:46;;;;;;;47.17;24.40;;;;;;;1.15;100.00;100746.72;5588834;31;33734;-83
2022/12/21 15:48:59;;;;;;;46.13;23.27;;;;;;;1.05;100.00;100738.53;5572993;31;33754;-84
2022/12/21 15:52:32;;;;;;;41.05;22.02;;;;;;;0.96;100.00;100741.84;5575864;31;32547;-88
2022/12/21 15:55:37;;;;;;;54.45;23.83;;;;;;;0.96;100.00;100740.03;5589226;31;33975;-84
2022/12/21 15:58:41;;;;;;;51.63;24.77;;;;;;;1.03;100.00;100746.63;5569783;31;32506;-85
2022/12/21 16:01:52;;;;;;;51.25;24.63;;;;;;;1.03;100.00;100737.81;5573698;32;32106;-84
2022/12/21 16:04:57;;;;;;;51.65;25.05;;;;;;;1.00;100.00;100741.53;5547249;32;32292;-84
2022/12/21 16:08:02;;;;;;;43.22;23.73;;;;;;;0.83;100.00;100741.84;5531426;32;31419;-84
2022/12/21 16:11:06;;;;;;;50.65;23.50;;;;;;;0.86;100.00;100753.06;5534810;32;34589;-84
2022/12/21 16:14:19;;;;;;;48.75;25.02;;;;;;;0.86;100.00;100754.88;5529838;32;34532;-85
2022/12/21 16:17:24;;;;;;;47.83;23.87;;;;;;;0.84;100.00;100757.62;5529504;32;33792;-85
2022/12/21 16:20:31;;;;;;;44.63;22.92;;;;;;;0.85;100.00;100763.81;5529531;32;33816;-85
2022/12/21 16:23:47;;;;;;;44.72;23.52;;;;;;;0.84;100.00;100757.62;5529518;32;34062;-85
2022/12/21 16:26:50;;;;;;;46.45;24.17;;;;;;;0.79;100.00;100756.25;5529444;32;34254;-85
2022/12/21 16:29:56;;;;;;;49.35;24.12;;;;;;;0.85;100.00;100751.41;5527876;32;32603;-85
